AXY2972 KFAR-KGRB
Flight info
| Callsign | AXY2972 |
|---|---|
| Flight time | 1h 1m |
| Altitude | 41000 |
| Route | BRNRD |
| Aircraft | A343/H-SDE2E3FGHIJ4J5M1RWXY/LB1D1 |
Departure
| Time | 2026-05-08 15:27 |
|---|---|
| Airport | Hector International Airport (KFAR) |
Arrival
| Time | 2026-05-08 16:28 |
|---|---|
| Airport | Austin Straubel International Airport (KGRB) |
| Time | Latitude | Longitude | Altitude | Speed | Heading |
|---|---|---|---|---|---|
| 2026-05-08 15:09 | 46.92922 | -96.80900 | 912 ft | 0 kts | 168° |
| 2026-05-08 15:22 | 46.92921 | -96.80900 | 912 ft | 0 kts | 173° |
| 2026-05-08 15:22 | 46.92916 | -96.80908 | 912 ft | 1 kts | 216° |
| 2026-05-08 15:23 | 46.92912 | -96.80936 | 912 ft | 6 kts | 257° |
| 2026-05-08 15:23 | 46.92905 | -96.81016 | 911 ft | 8 kts | 247° |
| 2026-05-08 15:23 | 46.92872 | -96.81036 | 910 ft | 7 kts | 186° |
| 2026-05-08 15:23 | 46.92825 | -96.81068 | 910 ft | 6 kts | 237° |
| 2026-05-08 15:24 | 46.92816 | -96.81146 | 911 ft | 11 kts | 269° |
| 2026-05-08 15:24 | 46.92815 | -96.81268 | 910 ft | 14 kts | 269° |
| 2026-05-08 15:24 | 46.92833 | -96.81343 | 912 ft | 2 kts | 341° |
| 2026-05-08 15:24 | 46.92876 | -96.81332 | 909 ft | 12 kts | 7° |
| 2026-05-08 15:25 | 46.92970 | -96.81328 | 909 ft | 15 kts | 360° |
| 2026-05-08 15:25 | 46.93086 | -96.81328 | 908 ft | 17 kts | 1° |
| 2026-05-08 15:25 | 46.93198 | -96.81327 | 909 ft | 16 kts | 352° |
| 2026-05-08 15:25 | 46.93264 | -96.81426 | 909 ft | 13 kts | 284° |
| 2026-05-08 15:26 | 46.93269 | -96.81560 | 907 ft | 11 kts | 267° |
| 2026-05-08 15:26 | 46.93225 | -96.81610 | 905 ft | 7 kts | 191° |
| 2026-05-08 15:26 | 46.93183 | -96.81612 | 906 ft | 0 kts | 181° |
| 2026-05-08 15:26 | 46.93092 | -96.81613 | 907 ft | 45 kts | 180° |
| 2026-05-08 15:27 | 46.92513 | -96.81620 | 915 ft | 118 kts | 180° |
| 2026-05-08 15:27 | 46.91510 | -96.81626 | 1089 ft | 163 kts | 181° |
| 2026-05-08 15:27 | 46.90291 | -96.81621 | 1752 ft | 182 kts | 182° |
| 2026-05-08 15:27 | 46.88979 | -96.81609 | 2394 ft | 205 kts | 184° |
| 2026-05-08 15:28 | 46.87447 | -96.81091 | 2882 ft | 249 kts | 155° |
| 2026-05-08 15:28 | 46.86118 | -96.79314 | 3835 ft | 271 kts | 124° |
| 2026-05-08 15:28 | 46.85460 | -96.76703 | 4955 ft | 279 kts | 95° |
| 2026-05-08 15:28 | 46.85666 | -96.73902 | 6163 ft | 279 kts | 67° |
| 2026-05-08 15:29 | 46.86505 | -96.71348 | 7308 ft | 282 kts | 59° |
| 2026-05-08 15:29 | 46.87337 | -96.68706 | 8418 ft | 290 kts | 62° |
| 2026-05-08 15:29 | 46.88119 | -96.65955 | 9504 ft | 298 kts | 66° |
| 2026-05-08 15:29 | 46.88496 | -96.62909 | 10430 ft | 315 kts | 86° |
| 2026-05-08 15:30 | 46.88325 | -96.59588 | 10932 ft | 341 kts | 97° |
| 2026-05-08 15:30 | 46.87815 | -96.56117 | 11593 ft | 356 kts | 103° |
| 2026-05-08 15:30 | 46.87113 | -96.52597 | 12461 ft | 364 kts | 105° |
| 2026-05-08 15:30 | 46.86333 | -96.49033 | 13351 ft | 371 kts | 106° |
| 2026-05-08 15:31 | 46.85538 | -96.45414 | 14178 ft | 377 kts | 105° |
| 2026-05-08 15:31 | 46.84750 | -96.41732 | 15012 ft | 382 kts | 105° |
| 2026-05-08 15:31 | 46.83985 | -96.38032 | 15849 ft | 387 kts | 104° |
| 2026-05-08 15:31 | 46.83220 | -96.34234 | 16685 ft | 392 kts | 104° |
| 2026-05-08 15:32 | 46.82456 | -96.30382 | 17543 ft | 397 kts | 103° |
| 2026-05-08 15:32 | 46.81688 | -96.26480 | 18349 ft | 402 kts | 103° |
| 2026-05-08 15:32 | 46.80912 | -96.22540 | 19087 ft | 406 kts | 103° |
| 2026-05-08 15:32 | 46.80126 | -96.18558 | 19815 ft | 411 kts | 103° |
| 2026-05-08 15:33 | 46.79334 | -96.14556 | 20471 ft | 417 kts | 103° |
| 2026-05-08 15:33 | 46.78521 | -96.10468 | 21217 ft | 422 kts | 103° |
| 2026-05-08 15:33 | 46.77699 | -96.06350 | 21989 ft | 424 kts | 104° |
| 2026-05-08 15:33 | 46.76868 | -96.02198 | 22718 ft | 428 kts | 104° |
| 2026-05-08 15:34 | 46.76026 | -95.98006 | 23375 ft | 432 kts | 104° |
| 2026-05-08 15:34 | 46.75176 | -95.93778 | 23939 ft | 436 kts | 104° |
| 2026-05-08 15:34 | 46.74316 | -95.89509 | 24492 ft | 440 kts | 104° |
| 2026-05-08 15:34 | 46.73446 | -95.85198 | 25045 ft | 444 kts | 104° |
| 2026-05-08 15:35 | 46.72570 | -95.80871 | 25596 ft | 447 kts | 104° |
| 2026-05-08 15:35 | 46.71686 | -95.76511 | 26137 ft | 450 kts | 104° |
| 2026-05-08 15:35 | 46.70794 | -95.72120 | 26649 ft | 454 kts | 104° |
| 2026-05-08 15:35 | 46.69904 | -95.67746 | 27188 ft | 457 kts | 104° |
| 2026-05-08 15:36 | 46.68995 | -95.63291 | 27723 ft | 460 kts | 104° |
| 2026-05-08 15:36 | 46.68388 | -95.60326 | 28074 ft | 461 kts | 104° |
| 2026-05-08 15:36 | 46.67150 | -95.54287 | 28744 ft | 466 kts | 104° |
| 2026-05-08 15:36 | 46.66228 | -95.49795 | 29188 ft | 469 kts | 104° |
| 2026-05-08 15:37 | 46.65287 | -95.45228 | 29651 ft | 472 kts | 104° |
| 2026-05-08 15:37 | 46.64340 | -95.40639 | 30058 ft | 475 kts | 104° |
| 2026-05-08 15:37 | 46.63384 | -95.36015 | 30435 ft | 478 kts | 104° |
| 2026-05-08 15:37 | 46.62419 | -95.31365 | 30800 ft | 481 kts | 105° |
| 2026-05-08 15:38 | 46.61449 | -95.26698 | 31163 ft | 484 kts | 105° |
| 2026-05-08 15:38 | 46.60473 | -95.22012 | 31589 ft | 484 kts | 105° |
| 2026-05-08 15:38 | 46.59495 | -95.17329 | 32121 ft | 483 kts | 105° |
| 2026-05-08 15:38 | 46.58515 | -95.12652 | 32593 ft | 483 kts | 105° |
| 2026-05-08 15:39 | 46.57536 | -95.07984 | 33042 ft | 482 kts | 105° |
| 2026-05-08 15:39 | 46.56555 | -95.03320 | 33503 ft | 482 kts | 105° |
| 2026-05-08 15:39 | 46.55572 | -94.98654 | 33926 ft | 482 kts | 105° |
| 2026-05-08 15:39 | 46.54589 | -94.94000 | 34287 ft | 482 kts | 105° |
| 2026-05-08 15:40 | 46.53604 | -94.89342 | 34623 ft | 483 kts | 105° |
| 2026-05-08 15:40 | 46.52615 | -94.84681 | 34957 ft | 483 kts | 105° |
| 2026-05-08 15:40 | 46.51622 | -94.80011 | 35295 ft | 484 kts | 106° |
| 2026-05-08 15:40 | 46.50637 | -94.75388 | 35604 ft | 485 kts | 106° |
| 2026-05-08 15:41 | 46.49636 | -94.70702 | 35933 ft | 485 kts | 106° |
| 2026-05-08 15:41 | 46.48635 | -94.66026 | 36259 ft | 486 kts | 106° |
| 2026-05-08 15:41 | 46.47629 | -94.61341 | 36562 ft | 486 kts | 106° |
| 2026-05-08 15:41 | 46.46620 | -94.56649 | 36867 ft | 487 kts | 106° |
| 2026-05-08 15:42 | 46.45610 | -94.51964 | 37167 ft | 487 kts | 106° |
| 2026-05-08 15:42 | 46.44597 | -94.47274 | 37501 ft | 487 kts | 107° |
| 2026-05-08 15:42 | 46.43581 | -94.42583 | 37820 ft | 488 kts | 107° |
| 2026-05-08 15:42 | 46.42562 | -94.37886 | 38147 ft | 488 kts | 107° |
| 2026-05-08 15:43 | 46.41553 | -94.33245 | 38442 ft | 489 kts | 107° |
| 2026-05-08 15:43 | 46.40530 | -94.28552 | 38690 ft | 489 kts | 107° |
| 2026-05-08 15:43 | 46.39504 | -94.23859 | 38944 ft | 489 kts | 107° |
| 2026-05-08 15:43 | 46.38476 | -94.19167 | 39202 ft | 488 kts | 107° |
| 2026-05-08 15:44 | 46.37444 | -94.14465 | 39475 ft | 487 kts | 107° |
| 2026-05-08 15:44 | 46.36417 | -94.09793 | 39718 ft | 487 kts | 107° |
| 2026-05-08 15:44 | 46.35388 | -94.05127 | 39968 ft | 486 kts | 107° |
| 2026-05-08 15:44 | 46.34373 | -94.00514 | 40217 ft | 486 kts | 107° |
| 2026-05-08 15:45 | 46.33400 | -93.95827 | 40467 ft | 486 kts | 105° |
| 2026-05-08 15:45 | 46.32447 | -93.91143 | 40665 ft | 486 kts | 105° |
| 2026-05-08 15:45 | 46.31487 | -93.86449 | 40813 ft | 488 kts | 106° |
| 2026-05-08 15:45 | 46.30521 | -93.81755 | 40816 ft | 484 kts | 106° |
| 2026-05-08 15:46 | 46.28595 | -93.72459 | 40824 ft | 481 kts | 106° |
| 2026-05-08 15:46 | 46.26663 | -93.63197 | 40824 ft | 480 kts | 106° |
| 2026-05-08 15:47 | 46.24726 | -93.53956 | 40819 ft | 481 kts | 106° |
| 2026-05-08 15:47 | 46.22790 | -93.44766 | 40821 ft | 481 kts | 106° |
| 2026-05-08 15:48 | 46.19853 | -93.30900 | 40827 ft | 481 kts | 107° |
| 2026-05-08 15:49 | 46.17884 | -93.21659 | 40829 ft | 481 kts | 107° |
| 2026-05-08 15:49 | 46.15921 | -93.12484 | 40831 ft | 481 kts | 107° |
| 2026-05-08 15:50 | 46.13946 | -93.03294 | 40831 ft | 481 kts | 107° |
| 2026-05-08 15:50 | 46.11956 | -92.94076 | 40824 ft | 481 kts | 107° |
| 2026-05-08 15:51 | 46.10293 | -92.86404 | 40824 ft | 482 kts | 107° |
| 2026-05-08 15:51 | 46.08288 | -92.77193 | 40828 ft | 482 kts | 107° |
| 2026-05-08 15:52 | 46.06275 | -92.67984 | 40822 ft | 482 kts | 107° |
| 2026-05-08 15:52 | 46.04255 | -92.58784 | 40822 ft | 482 kts | 107° |
| 2026-05-08 15:53 | 46.02226 | -92.49587 | 40821 ft | 482 kts | 107° |
| 2026-05-08 15:53 | 46.00205 | -92.40462 | 40819 ft | 482 kts | 107° |
| 2026-05-08 15:54 | 45.98163 | -92.31283 | 40820 ft | 482 kts | 108° |
| 2026-05-08 15:54 | 45.96113 | -92.22107 | 40820 ft | 482 kts | 108° |
| 2026-05-08 15:55 | 45.94052 | -92.12924 | 40817 ft | 482 kts | 108° |
| 2026-05-08 15:55 | 45.90952 | -91.99183 | 40830 ft | 482 kts | 108° |
| 2026-05-08 15:56 | 45.88871 | -91.90007 | 40838 ft | 483 kts | 108° |
| 2026-05-08 15:56 | 45.86785 | -91.80852 | 40836 ft | 483 kts | 108° |
| 2026-05-08 15:57 | 45.84690 | -91.71691 | 40835 ft | 483 kts | 108° |
| 2026-05-08 15:57 | 45.82602 | -91.62605 | 40827 ft | 483 kts | 108° |
| 2026-05-08 15:58 | 45.80493 | -91.53462 | 40826 ft | 483 kts | 108° |
| 2026-05-08 15:58 | 45.79434 | -91.48886 | 40591 ft | 485 kts | 108° |
| 2026-05-08 15:58 | 45.78368 | -91.44291 | 40365 ft | 487 kts | 109° |
| 2026-05-08 15:59 | 45.77298 | -91.39685 | 40133 ft | 488 kts | 109° |
| 2026-05-08 15:59 | 45.76220 | -91.35056 | 39890 ft | 489 kts | 109° |
| 2026-05-08 15:59 | 45.75140 | -91.30430 | 39662 ft | 490 kts | 109° |
| 2026-05-08 15:59 | 45.74059 | -91.25808 | 39442 ft | 490 kts | 109° |
| 2026-05-08 16:00 | 45.72975 | -91.21182 | 39219 ft | 491 kts | 109° |
| 2026-05-08 16:00 | 45.71888 | -91.16554 | 39005 ft | 491 kts | 109° |
| 2026-05-08 16:00 | 45.70794 | -91.11905 | 38795 ft | 492 kts | 109° |
| 2026-05-08 16:00 | 45.69699 | -91.07265 | 38582 ft | 493 kts | 109° |
| 2026-05-08 16:01 | 45.68613 | -91.02670 | 38323 ft | 493 kts | 109° |
| 2026-05-08 16:01 | 45.67513 | -90.98025 | 38044 ft | 493 kts | 109° |
| 2026-05-08 16:01 | 45.66412 | -90.93387 | 37781 ft | 493 kts | 109° |
| 2026-05-08 16:01 | 45.65309 | -90.88748 | 37507 ft | 493 kts | 109° |
| 2026-05-08 16:02 | 45.64205 | -90.84115 | 37236 ft | 493 kts | 109° |
| 2026-05-08 16:02 | 45.63096 | -90.79475 | 36987 ft | 492 kts | 109° |
| 2026-05-08 16:02 | 45.61989 | -90.74850 | 36756 ft | 492 kts | 110° |
| 2026-05-08 16:02 | 45.60876 | -90.70209 | 36495 ft | 493 kts | 110° |
| 2026-05-08 16:03 | 45.59763 | -90.65577 | 36238 ft | 492 kts | 110° |
| 2026-05-08 16:03 | 45.58648 | -90.60949 | 35992 ft | 492 kts | 110° |
| 2026-05-08 16:03 | 45.57534 | -90.56332 | 35719 ft | 492 kts | 110° |
| 2026-05-08 16:03 | 45.56415 | -90.51707 | 35474 ft | 493 kts | 110° |
| 2026-05-08 16:04 | 45.55308 | -90.47138 | 35234 ft | 493 kts | 110° |
| 2026-05-08 16:04 | 45.54186 | -90.42519 | 35003 ft | 493 kts | 110° |
| 2026-05-08 16:04 | 45.53059 | -90.37888 | 34774 ft | 493 kts | 110° |
| 2026-05-08 16:04 | 45.51931 | -90.33261 | 34530 ft | 494 kts | 110° |
| 2026-05-08 16:05 | 45.50800 | -90.28631 | 34323 ft | 494 kts | 111° |
| 2026-05-08 16:05 | 45.49668 | -90.24010 | 34081 ft | 494 kts | 111° |
| 2026-05-08 16:05 | 45.48534 | -90.19386 | 33843 ft | 494 kts | 111° |
| 2026-05-08 16:05 | 45.47398 | -90.14768 | 33569 ft | 494 kts | 111° |
| 2026-05-08 16:06 | 45.46273 | -90.10202 | 33298 ft | 493 kts | 111° |
| 2026-05-08 16:06 | 45.45134 | -90.05587 | 33025 ft | 493 kts | 111° |
| 2026-05-08 16:06 | 45.43994 | -90.00980 | 32743 ft | 493 kts | 111° |
| 2026-05-08 16:06 | 45.42853 | -89.96374 | 32466 ft | 492 kts | 111° |
| 2026-05-08 16:07 | 45.41713 | -89.91782 | 31925 ft | 490 kts | 111° |
| 2026-05-08 16:07 | 45.40577 | -89.87216 | 31215 ft | 490 kts | 111° |
| 2026-05-08 16:07 | 45.39435 | -89.82640 | 30489 ft | 491 kts | 111° |
| 2026-05-08 16:07 | 45.38296 | -89.78080 | 29926 ft | 486 kts | 111° |
| 2026-05-08 16:08 | 45.37169 | -89.73577 | 29361 ft | 481 kts | 111° |
| 2026-05-08 16:08 | 45.36052 | -89.69120 | 28805 ft | 475 kts | 111° |
| 2026-05-08 16:08 | 45.34957 | -89.64765 | 28275 ft | 470 kts | 111° |
| 2026-05-08 16:08 | 45.33860 | -89.60406 | 27743 ft | 466 kts | 111° |
| 2026-05-08 16:09 | 45.32770 | -89.56088 | 27211 ft | 461 kts | 111° |
| 2026-05-08 16:09 | 45.31691 | -89.51817 | 26677 ft | 457 kts | 111° |
| 2026-05-08 16:09 | 45.30616 | -89.47576 | 26134 ft | 454 kts | 111° |
| 2026-05-08 16:09 | 45.29552 | -89.43380 | 25591 ft | 451 kts | 111° |
| 2026-05-08 16:10 | 45.28490 | -89.39202 | 25053 ft | 448 kts | 111° |
| 2026-05-08 16:10 | 45.27433 | -89.35052 | 24517 ft | 445 kts | 111° |
| 2026-05-08 16:10 | 45.26383 | -89.30933 | 23983 ft | 443 kts | 111° |
| 2026-05-08 16:10 | 45.25337 | -89.26839 | 23448 ft | 440 kts | 110° |
| 2026-05-08 16:11 | 45.24295 | -89.22768 | 22861 ft | 437 kts | 110° |
| 2026-05-08 16:11 | 45.23260 | -89.18733 | 22348 ft | 433 kts | 111° |
| 2026-05-08 16:11 | 45.22233 | -89.14733 | 21821 ft | 429 kts | 111° |
| 2026-05-08 16:11 | 45.21213 | -89.10769 | 21304 ft | 425 kts | 111° |
| 2026-05-08 16:12 | 45.20215 | -89.06898 | 20800 ft | 422 kts | 111° |
| 2026-05-08 16:12 | 45.19209 | -89.03002 | 20307 ft | 419 kts | 111° |
| 2026-05-08 16:12 | 45.18211 | -88.99143 | 19793 ft | 416 kts | 110° |
| 2026-05-08 16:12 | 45.17217 | -88.95305 | 19303 ft | 413 kts | 110° |
| 2026-05-08 16:13 | 45.16230 | -88.91500 | 18779 ft | 411 kts | 110° |
| 2026-05-08 16:13 | 45.15245 | -88.87709 | 18284 ft | 409 kts | 110° |
| 2026-05-08 16:13 | 45.14261 | -88.83931 | 17736 ft | 407 kts | 110° |
| 2026-05-08 16:13 | 45.13285 | -88.80183 | 17231 ft | 404 kts | 110° |
| 2026-05-08 16:14 | 45.12315 | -88.76469 | 16712 ft | 400 kts | 111° |
| 2026-05-08 16:14 | 45.11356 | -88.72800 | 16317 ft | 394 kts | 111° |
| 2026-05-08 16:14 | 45.10408 | -88.69182 | 15859 ft | 390 kts | 111° |
| 2026-05-08 16:14 | 45.09466 | -88.65591 | 15363 ft | 388 kts | 111° |
| 2026-05-08 16:15 | 45.08529 | -88.62024 | 14860 ft | 386 kts | 111° |
| 2026-05-08 16:15 | 45.07593 | -88.58466 | 14366 ft | 385 kts | 111° |
| 2026-05-08 16:15 | 45.06661 | -88.54929 | 13861 ft | 383 kts | 111° |
| 2026-05-08 16:15 | 45.05741 | -88.51444 | 13364 ft | 381 kts | 111° |
| 2026-05-08 16:16 | 45.04814 | -88.47938 | 12853 ft | 378 kts | 111° |
| 2026-05-08 16:16 | 45.03896 | -88.44469 | 12356 ft | 375 kts | 111° |
| 2026-05-08 16:16 | 45.02983 | -88.41025 | 11879 ft | 371 kts | 111° |
| 2026-05-08 16:16 | 45.02078 | -88.37617 | 11393 ft | 368 kts | 111° |
| 2026-05-08 16:17 | 45.01181 | -88.34242 | 10908 ft | 365 kts | 111° |
| 2026-05-08 16:17 | 45.00591 | -88.32024 | 10645 ft | 362 kts | 111° |
| 2026-05-08 16:17 | 44.99432 | -88.27674 | 10463 ft | 345 kts | 111° |
| 2026-05-08 16:17 | 44.98612 | -88.24604 | 10336 ft | 333 kts | 111° |
| 2026-05-08 16:18 | 44.97795 | -88.21547 | 10135 ft | 324 kts | 110° |
| 2026-05-08 16:18 | 44.96963 | -88.18666 | 9879 ft | 319 kts | 117° |
| 2026-05-08 16:18 | 44.95591 | -88.16263 | 9527 ft | 312 kts | 146° |
| 2026-05-08 16:18 | 44.93767 | -88.14688 | 9197 ft | 306 kts | 156° |
| 2026-05-08 16:19 | 44.91883 | -88.13316 | 8850 ft | 303 kts | 157° |
| 2026-05-08 16:19 | 44.90021 | -88.11974 | 8399 ft | 298 kts | 157° |
| 2026-05-08 16:19 | 44.88178 | -88.10638 | 7998 ft | 297 kts | 157° |
| 2026-05-08 16:19 | 44.86346 | -88.09300 | 7657 ft | 295 kts | 157° |
| 2026-05-08 16:20 | 44.84531 | -88.07972 | 7315 ft | 293 kts | 157° |
| 2026-05-08 16:20 | 44.82734 | -88.06653 | 6991 ft | 290 kts | 157° |
| 2026-05-08 16:20 | 44.80953 | -88.05346 | 6646 ft | 288 kts | 157° |
| 2026-05-08 16:20 | 44.79175 | -88.04041 | 6296 ft | 286 kts | 157° |
| 2026-05-08 16:21 | 44.77416 | -88.02751 | 5944 ft | 284 kts | 157° |
| 2026-05-08 16:21 | 44.75693 | -88.01487 | 5549 ft | 282 kts | 157° |
| 2026-05-08 16:21 | 44.73957 | -88.00215 | 5214 ft | 279 kts | 157° |
| 2026-05-08 16:21 | 44.72241 | -87.98957 | 4880 ft | 276 kts | 157° |
| 2026-05-08 16:22 | 44.70544 | -87.97715 | 4528 ft | 273 kts | 157° |
| 2026-05-08 16:22 | 44.68869 | -87.96489 | 4186 ft | 270 kts | 157° |
| 2026-05-08 16:22 | 44.67209 | -87.95276 | 3833 ft | 268 kts | 157° |
| 2026-05-08 16:22 | 44.65563 | -87.94074 | 3498 ft | 265 kts | 157° |
| 2026-05-08 16:23 | 44.63978 | -87.92842 | 3326 ft | 256 kts | 154° |
| 2026-05-08 16:23 | 44.62465 | -87.91596 | 3182 ft | 247 kts | 154° |
| 2026-05-08 16:23 | 44.60966 | -87.90555 | 3020 ft | 233 kts | 167° |
| 2026-05-08 16:23 | 44.59451 | -87.90333 | 2769 ft | 208 kts | 193° |
| 2026-05-08 16:24 | 44.58160 | -87.90962 | 2462 ft | 188 kts | 217° |
| 2026-05-08 16:24 | 44.57209 | -87.92184 | 2404 ft | 185 kts | 236° |
| 2026-05-08 16:24 | 44.56513 | -87.93698 | 2405 ft | 184 kts | 242° |
| 2026-05-08 16:24 | 44.55884 | -87.95247 | 2420 ft | 181 kts | 242° |
| 2026-05-08 16:25 | 44.55285 | -87.96730 | 2409 ft | 169 kts | 242° |
| 2026-05-08 16:25 | 44.54748 | -87.98045 | 2388 ft | 144 kts | 242° |
| 2026-05-08 16:25 | 44.54263 | -87.99231 | 2401 ft | 139 kts | 242° |
| 2026-05-08 16:25 | 44.53775 | -88.00423 | 2408 ft | 141 kts | 241° |
| 2026-05-08 16:26 | 44.53295 | -88.01603 | 2378 ft | 137 kts | 242° |
| 2026-05-08 16:26 | 44.52815 | -88.02771 | 2285 ft | 140 kts | 241° |
| 2026-05-08 16:26 | 44.52335 | -88.03935 | 2129 ft | 134 kts | 242° |
| 2026-05-08 16:26 | 44.51863 | -88.05084 | 1902 ft | 138 kts | 242° |
| 2026-05-08 16:27 | 44.51391 | -88.06262 | 1612 ft | 139 kts | 241° |
| 2026-05-08 16:27 | 44.50905 | -88.07441 | 1359 ft | 142 kts | 240° |
| 2026-05-08 16:27 | 44.50396 | -88.08629 | 1145 ft | 140 kts | 239° |
| 2026-05-08 16:27 | 44.49895 | -88.09807 | 937 ft | 143 kts | 240° |
| 2026-05-08 16:28 | 44.49395 | -88.11032 | 754 ft | 145 kts | 239° |
| 2026-05-08 16:28 | 44.48922 | -88.12165 | 685 ft | 107 kts | 239° |
| 2026-05-08 16:28 | 44.48696 | -88.12722 | 687 ft | 37 kts | 240° |
| 2026-05-08 16:28 | 44.48600 | -88.12955 | 692 ft | 13 kts | 239° |
| 2026-05-08 16:29 | 44.48551 | -88.13071 | 693 ft | 15 kts | 239° |
| 2026-05-08 16:29 | 44.48551 | -88.13179 | 694 ft | 9 kts | 303° |
| 2026-05-08 16:29 | 44.48594 | -88.13209 | 696 ft | 7 kts | 355° |
| 2026-05-08 16:29 | 44.48641 | -88.13156 | 693 ft | 11 kts | 53° |
| 2026-05-08 16:30 | 44.48689 | -88.13043 | 693 ft | 16 kts | 59° |
| 2026-05-08 16:30 | 44.48752 | -88.12891 | 691 ft | 17 kts | 60° |
| 2026-05-08 16:30 | 44.48820 | -88.12725 | 691 ft | 23 kts | 60° |
| 2026-05-08 16:30 | 44.48871 | -88.12602 | 685 ft | 0 kts | 60° |
| 2026-05-08 16:31 | 44.48881 | -88.12576 | 686 ft | 9 kts | 60° |
| 2026-05-08 16:31 | 44.48928 | -88.12467 | 683 ft | 13 kts | 56° |
| 2026-05-08 16:31 | 44.48988 | -88.12441 | 687 ft | 11 kts | 2° |
| 2026-05-08 16:31 | 44.49068 | -88.12462 | 688 ft | 12 kts | 330° |
| 2026-05-08 16:32 | 44.49130 | -88.12504 | 688 ft | 8 kts | 343° |
| 2026-05-08 16:32 | 44.49168 | -88.12496 | 692 ft | 5 kts | 12° |
| 2026-05-08 16:32 | 44.49169 | -88.12496 | 692 ft | 0 kts | 12° |